createdAt,value
2018-07-20T00:00:31.852Z,24.50
2018-07-20T00:01:35.459Z,24.50
2018-07-20T00:02:38.840Z,24.50
2018-07-20T00:03:42.230Z,24.50
2018-07-20T00:04:45.639Z,24.50
2018-07-20T00:05:50.239Z,24.40
2018-07-20T00:06:53.663Z,24.40
2018-07-20T00:07:57.091Z,24.40
2018-07-20T00:09:00.443Z,24.40
2018-07-20T00:10:03.894Z,24.40
2018-07-20T00:11:08.383Z,24.40
2018-07-20T00:12:11.831Z,24.40
2018-07-20T00:13:15.215Z,24.40
2018-07-20T00:14:18.608Z,24.40
2018-07-20T00:15:23.139Z,24.40
2018-07-20T00:16:28.019Z,24.40
2018-07-20T00:17:31.395Z,24.40
2018-07-20T00:18:34.783Z,24.40
2018-07-20T00:19:38.188Z,24.30
2018-07-20T00:20:42.780Z,24.40
2018-07-20T00:21:46.191Z,24.40
2018-07-20T00:22:49.587Z,24.40
2018-07-20T00:23:52.979Z,24.40
2018-07-20T00:27:03.303Z,24.40
2018-07-20T00:28:06.719Z,24.40
2018-07-20T00:29:10.115Z,24.30
2018-07-20T00:30:14.768Z,24.30
2018-07-20T00:31:19.694Z,24.30
2018-07-20T00:32:23.099Z,24.30
2018-07-20T00:33:26.483Z,24.20
2018-07-20T00:34:29.864Z,24.20
2018-07-20T00:35:34.895Z,24.10
2018-07-20T00:37:41.412Z,24.00
2018-07-20T00:38:44.787Z,24.00
2018-07-20T00:39:48.171Z,24.00
2018-07-20T00:41:55.839Z,24.00
2018-07-20T00:42:59.263Z,24.00
2018-07-20T00:44:02.644Z,23.90
2018-07-20T00:46:11.182Z,23.90
2018-07-20T00:47:14.623Z,23.90
2018-07-20T00:48:18.016Z,23.90
2018-07-20T00:49:21.399Z,23.90
2018-07-20T00:50:26.190Z,24.00
2018-07-20T00:52:32.762Z,24.00
2018-07-20T00:53:36.151Z,24.00
2018-07-20T00:54:39.546Z,24.00
2018-07-20T00:55:43.970Z,24.00
2018-07-20T00:56:47.371Z,24.00
2018-07-20T00:57:50.791Z,24.00
2018-07-20T00:58:54.262Z,23.90
2018-07-20T00:59:57.639Z,24.00
2018-07-20T01:01:02.103Z,24.00
2018-07-20T01:04:11.708Z,23.90
2018-07-20T01:05:16.082Z,23.90
2018-07-20T01:07:23.347Z,23.90
2018-07-20T01:08:26.748Z,23.90
2018-07-20T01:09:30.128Z,23.90
2018-07-20T01:10:38.848Z,23.90
2018-07-20T01:11:42.259Z,23.80
2018-07-20T01:12:45.647Z,23.90
2018-07-20T01:13:49.044Z,23.80
2018-07-20T01:14:52.436Z,23.90
2018-07-20T01:15:56.831Z,23.90
2018-07-20T01:17:00.231Z,23.90
2018-07-20T01:18:03.639Z,23.80
2018-07-20T01:19:07.039Z,23.90
2018-07-20T01:20:12.125Z,23.90
2018-07-20T01:21:22.683Z,23.80
2018-07-20T01:22:26.075Z,23.90
2018-07-20T01:23:29.499Z,23.80
2018-07-20T01:24:32.880Z,23.80
2018-07-20T01:25:37.250Z,23.80
2018-07-20T01:26:40.671Z,23.80
2018-07-20T01:27:44.055Z,23.80
2018-07-20T01:28:47.459Z,23.70
2018-07-20T01:29:50.843Z,23.80
2018-07-20T01:30:58.277Z,23.80
2018-07-20T01:32:01.683Z,23.70
2018-07-20T01:33:05.083Z,23.70
2018-07-20T01:34:08.471Z,23.70
2018-07-20T01:35:12.806Z,23.70
2018-07-20T01:36:17.308Z,23.70
2018-07-20T01:37:20.727Z,23.70
2018-07-20T01:38:24.131Z,23.70
2018-07-20T01:39:27.520Z,23.70
2018-07-20T01:40:32.076Z,23.60
2018-07-20T01:41:35.491Z,23.60
2018-07-20T01:42:38.875Z,23.60
2018-07-20T01:43:42.281Z,23.50
2018-07-20T01:44:45.668Z,23.50
2018-07-20T01:45:49.984Z,23.50
2018-07-20T01:46:53.397Z,23.50
2018-07-20T01:47:56.767Z,23.50
2018-07-20T01:49:00.171Z,23.50
2018-07-20T01:50:04.134Z,23.50
2018-07-20T01:51:09.041Z,23.50
2018-07-20T01:52:12.435Z,23.50
2018-07-20T01:53:15.829Z,23.50
2018-07-20T01:54:19.219Z,23.50
2018-07-20T01:55:24.160Z,23.50
2018-07-20T01:56:28.599Z,23.50
2018-07-20T01:57:31.971Z,23.50
2018-07-20T01:58:35.355Z,23.50
2018-07-20T01:59:38.787Z,23.40
2018-07-20T02:00:43.509Z,23.40
2018-07-20T02:01:46.919Z,23.40
2018-07-20T02:02:50.301Z,23.40
2018-07-20T02:03:53.678Z,23.40
2018-07-20T02:04:57.075Z,23.40
2018-07-20T02:06:01.612Z,23.30
2018-07-20T02:07:05.027Z,23.30
2018-07-20T02:09:12.067Z,23.30
2018-07-20T02:10:17.025Z,23.30
2018-07-20T02:11:21.512Z,23.30
2018-07-20T02:12:24.904Z,23.30
2018-07-20T02:13:28.291Z,23.30
2018-07-20T02:14:31.672Z,23.20
2018-07-20T02:15:36.104Z,23.20
2018-07-20T02:16:39.499Z,23.20
2018-07-20T02:17:42.891Z,23.20
2018-07-20T02:18:46.271Z,23.20
2018-07-20T02:19:49.667Z,23.20
2018-07-20T02:20:54.205Z,23.20
2018-07-20T02:21:57.603Z,23.20
2018-07-20T02:23:00.976Z,23.20
2018-07-20T02:24:04.374Z,23.10
2018-07-20T02:25:08.913Z,23.10
2018-07-20T02:26:13.504Z,23.10
2018-07-20T02:27:16.940Z,23.10
2018-07-20T02:29:23.610Z,23.00
2018-07-20T02:30:28.465Z,23.00
2018-07-20T02:31:38.371Z,23.00
2018-07-20T02:32:41.751Z,23.00
2018-07-20T02:33:45.132Z,23.00
2018-07-20T02:37:01.813Z,22.90
2018-07-20T02:38:05.212Z,22.90
2018-07-20T02:39:11.220Z,22.80
2018-07-20T02:40:15.653Z,22.80
2018-07-20T02:41:20.555Z,22.70
2018-07-20T02:42:23.975Z,22.70
2018-07-20T02:43:27.363Z,22.70
2018-07-20T02:44:30.735Z,22.70
2018-07-20T02:45:36.726Z,22.70
2018-07-20T02:46:40.363Z,22.70
2018-07-20T02:47:43.763Z,22.70
2018-07-20T02:48:47.139Z,22.70
2018-07-20T02:49:50.523Z,22.70
2018-07-20T02:50:55.583Z,22.70
2018-07-20T02:51:58.990Z,22.70
2018-07-20T02:53:02.383Z,22.70
2018-07-20T02:54:05.791Z,22.60
2018-07-20T02:55:10.248Z,22.60
2018-07-20T02:56:14.651Z,22.70
2018-07-20T02:57:18.079Z,22.70
2018-07-20T02:58:21.495Z,22.70
2018-07-20T02:59:24.896Z,22.70
2018-07-20T03:00:29.274Z,22.70
2018-07-20T03:01:32.696Z,22.70
2018-07-20T03:02:36.071Z,22.60
2018-07-20T03:03:39.495Z,22.60
2018-07-20T03:05:46.906Z,22.60
2018-07-20T03:06:50.325Z,22.60
2018-07-20T03:07:53.704Z,22.60
2018-07-20T03:08:57.171Z,22.60
2018-07-20T03:10:00.496Z,22.60
2018-07-20T03:11:04.893Z,22.60
2018-07-20T03:12:08.301Z,22.60
2018-07-20T03:13:11.679Z,22.60
2018-07-20T03:14:15.083Z,22.60
2018-07-20T03:15:19.400Z,22.60
2018-07-20T03:17:26.540Z,22.60
2018-07-20T03:18:29.920Z,22.60
2018-07-20T03:19:33.315Z,22.70
2018-07-20T03:20:37.764Z,22.70
2018-07-20T03:21:41.168Z,22.70
2018-07-20T03:22:44.555Z,22.70
2018-07-20T03:23:47.954Z,22.60
2018-07-20T03:24:51.355Z,22.70
2018-07-20T03:25:55.684Z,22.70
2018-07-20T03:26:59.099Z,22.60
2018-07-20T03:31:13.841Z,22.60
2018-07-20T03:32:17.246Z,22.50
2018-07-20T03:33:20.624Z,22.50
2018-07-20T03:34:24.009Z,22.50
2018-07-20T03:35:28.540Z,22.50
2018-07-20T03:36:31.971Z,22.60
2018-07-20T03:37:35.787Z,22.50
2018-07-20T03:38:39.171Z,22.50
2018-07-20T03:39:42.555Z,22.50
2018-07-20T03:40:47.798Z,22.50
2018-07-20T03:44:03.995Z,22.50
2018-07-20T03:45:08.582Z,22.50
2018-07-20T03:46:13.090Z,22.50
2018-07-20T03:47:16.489Z,22.50
2018-07-20T03:48:19.863Z,22.50
2018-07-20T03:49:23.246Z,22.50
2018-07-20T03:50:27.790Z,22.50
2018-07-20T03:53:37.398Z,22.50
2018-07-20T03:54:40.776Z,22.50
2018-07-20T03:55:45.303Z,22.50
2018-07-20T03:56:48.724Z,22.50
2018-07-20T03:57:52.315Z,22.50
2018-07-20T03:58:55.703Z,22.50
2018-07-20T03:59:59.083Z,22.50
2018-07-20T04:01:03.402Z,22.50
2018-07-20T04:02:06.827Z,22.50
2018-07-20T04:03:10.207Z,22.50
2018-07-20T04:05:17.736Z,22.50
2018-07-20T04:06:22.379Z,22.50
2018-07-20T04:07:25.822Z,22.50
2018-07-20T04:08:29.211Z,22.50
2018-07-20T04:09:32.593Z,22.50
2018-07-20T04:10:38.036Z,22.50
2018-07-20T04:11:41.859Z,22.50
2018-07-20T04:12:45.267Z,22.50
2018-07-20T04:13:48.639Z,22.50
2018-07-20T04:14:52.015Z,22.50
2018-07-20T04:15:56.525Z,22.50
2018-07-20T04:18:03.043Z,22.60
2018-07-20T04:19:06.466Z,22.50
2018-07-20T04:20:11.044Z,22.60
2018-07-20T04:21:15.560Z,22.60
2018-07-20T04:22:19.011Z,22.60
2018-07-20T04:23:22.388Z,22.50
2018-07-20T04:24:25.890Z,22.50
2018-07-20T04:25:30.406Z,22.50
2018-07-20T04:26:33.799Z,22.50
2018-07-20T04:28:40.572Z,22.40
2018-07-20T04:29:43.955Z,22.40
2018-07-20T04:30:48.884Z,22.30
2018-07-20T04:31:52.287Z,22.30
2018-07-20T04:32:55.687Z,22.30
2018-07-20T04:33:59.068Z,22.20
2018-07-20T04:35:02.500Z,22.30
2018-07-20T04:36:07.004Z,22.30
2018-07-20T04:37:10.404Z,22.30
2018-07-20T04:38:13.812Z,22.30
2018-07-20T04:41:26.109Z,22.30
2018-07-20T04:42:29.530Z,22.30
2018-07-20T04:43:32.935Z,22.30
2018-07-20T04:44:36.320Z,22.30
2018-07-20T04:45:41.351Z,22.30
2018-07-20T04:46:44.758Z,22.30
2018-07-20T04:47:48.134Z,22.30
2018-07-20T04:48:51.527Z,22.30
2018-07-20T04:49:54.972Z,22.30
2018-07-20T04:50:59.284Z,22.40
2018-07-20T04:52:02.687Z,22.40
2018-07-20T04:53:06.103Z,22.40
2018-07-20T04:54:09.503Z,22.40
2018-07-20T04:57:20.843Z,22.40
2018-07-20T04:58:24.231Z,22.40
2018-07-20T04:59:27.623Z,22.40
2018-07-20T05:00:32.023Z,22.40
2018-07-20T05:01:35.598Z,22.40
2018-07-20T05:02:38.980Z,22.40
2018-07-20T05:03:42.432Z,22.40
2018-07-20T05:04:45.999Z,22.40
2018-07-20T05:05:50.518Z,22.40
2018-07-20T05:10:03.506Z,22.40
2018-07-20T05:11:07.888Z,22.40
2018-07-20T05:12:11.283Z,22.40
2018-07-20T05:13:17.531Z,22.40
2018-07-20T05:15:25.019Z,22.40
2018-07-20T05:16:29.219Z,22.40
2018-07-20T05:19:38.749Z,22.40
2018-07-20T05:20:44.052Z,22.40
2018-07-20T05:22:50.522Z,22.40
2018-07-20T05:23:53.911Z,22.40
2018-07-20T05:24:57.296Z,22.40
2018-07-20T05:26:02.489Z,22.40
2018-07-20T05:27:05.916Z,22.30
2018-07-20T05:28:09.291Z,22.40
2018-07-20T05:29:12.667Z,22.30
2018-07-20T05:30:17.202Z,22.40
2018-07-20T05:32:25.687Z,22.30
2018-07-20T05:33:29.063Z,22.30
2018-07-20T05:34:32.447Z,22.30
2018-07-20T05:35:36.875Z,22.30
2018-07-20T05:36:40.308Z,22.40
2018-07-20T05:37:43.687Z,22.40
2018-07-20T05:38:47.077Z,22.40
2018-07-20T05:39:50.455Z,22.30
2018-07-20T05:44:03.937Z,22.30
2018-07-20T05:45:08.659Z,22.30
2018-07-20T05:46:13.301Z,22.30
2018-07-20T05:47:16.723Z,22.40
2018-07-20T05:48:20.147Z,22.30
2018-07-20T05:49:23.539Z,22.40
2018-07-20T05:50:27.978Z,22.40
2018-07-20T05:51:31.363Z,22.40
2018-07-20T05:52:34.765Z,22.40
2018-07-20T05:53:38.146Z,22.40
2018-07-20T05:54:41.528Z,22.40
2018-07-20T05:55:45.949Z,22.40
2018-07-20T05:56:49.363Z,22.40
2018-07-20T05:57:52.868Z,22.40
2018-07-20T05:58:56.251Z,22.40
2018-07-20T05:59:59.629Z,22.40
2018-07-20T06:01:04.032Z,22.40
2018-07-20T06:02:07.463Z,22.40
2018-07-20T06:03:10.879Z,22.40
2018-07-20T06:04:14.263Z,22.40
2018-07-20T06:05:18.624Z,22.40
2018-07-20T06:06:23.926Z,22.40
2018-07-20T06:07:27.343Z,22.40
2018-07-20T06:08:30.755Z,22.50
2018-07-20T06:09:34.135Z,22.40
2018-07-20T06:10:38.995Z,22.50
2018-07-20T06:11:42.400Z,22.50
2018-07-20T06:12:45.842Z,22.50
2018-07-20T06:13:49.262Z,22.50
2018-07-20T06:14:52.650Z,22.50
2018-07-20T06:16:59.804Z,22.50
2018-07-20T06:18:03.184Z,22.50
2018-07-20T06:19:06.683Z,22.60
2018-07-20T06:20:11.431Z,22.60
2018-07-20T06:21:16.876Z,22.60
2018-07-20T06:22:27.043Z,22.60
2018-07-20T06:23:30.433Z,22.60
2018-07-20T06:24:33.843Z,22.60
2018-07-20T06:25:38.346Z,22.60
2018-07-20T06:26:41.764Z,22.70
2018-07-20T06:29:51.308Z,22.70
2018-07-20T06:30:55.947Z,22.70
2018-07-20T06:31:59.383Z,22.70
2018-07-20T06:33:02.772Z,22.70
2018-07-20T06:34:06.151Z,22.70
2018-07-20T06:35:11.606Z,22.70
2018-07-20T06:36:15.927Z,22.70
2018-07-20T06:37:19.340Z,22.80
2018-07-20T06:38:22.716Z,22.80
2018-07-20T06:39:26.106Z,22.80
2018-07-20T06:40:30.514Z,22.80
2018-07-20T06:41:33.931Z,22.80
2018-07-20T06:42:37.315Z,22.80
2018-07-20T06:43:40.691Z,22.80
2018-07-20T06:44:44.063Z,22.80
2018-07-20T06:45:55.537Z,22.80
2018-07-20T06:46:58.950Z,22.90
2018-07-20T06:48:02.343Z,22.90
2018-07-20T06:49:06.332Z,22.90
2018-07-20T06:50:18.045Z,22.90
2018-07-20T06:51:22.498Z,22.90
2018-07-20T06:52:25.915Z,22.90
2018-07-20T06:53:29.331Z,23.00
2018-07-20T06:57:43.043Z,23.00
2018-07-20T06:58:46.489Z,23.00
2018-07-20T06:59:49.863Z,23.00
2018-07-20T07:01:57.335Z,23.00
2018-07-20T07:03:00.707Z,23.00
2018-07-20T07:04:04.099Z,23.10
2018-07-20T07:05:09.878Z,23.10
2018-07-20T07:06:14.392Z,23.10
2018-07-20T07:07:17.792Z,23.10
2018-07-20T07:08:21.191Z,23.10
2018-07-20T07:09:24.625Z,23.10
2018-07-20T07:10:29.118Z,23.10
2018-07-20T07:11:33.635Z,23.10
2018-07-20T07:12:37.015Z,23.20
2018-07-20T07:13:40.398Z,23.20
2018-07-20T07:14:43.799Z,23.20
2018-07-20T07:15:48.487Z,23.20
2018-07-20T07:16:51.916Z,23.20
2018-07-20T07:17:55.295Z,23.20
2018-07-20T07:18:58.675Z,23.20
2018-07-20T07:20:02.092Z,23.20
2018-07-20T07:21:06.601Z,23.30
2018-07-20T07:22:10.096Z,23.30
2018-07-20T07:23:13.439Z,23.30
2018-07-20T07:24:16.883Z,23.30
2018-07-20T07:25:21.377Z,23.30
2018-07-20T07:26:25.928Z,23.30
2018-07-20T07:27:29.431Z,23.30
2018-07-20T07:28:32.999Z,23.30
2018-07-20T07:29:36.384Z,23.30
2018-07-20T07:30:40.903Z,23.30
2018-07-20T07:31:44.299Z,23.30
2018-07-20T07:32:47.711Z,23.30
2018-07-20T07:33:51.099Z,23.40
2018-07-20T07:35:58.757Z,23.40
2018-07-20T07:38:05.315Z,23.40
2018-07-20T07:39:10.731Z,23.40
2018-07-20T07:40:15.359Z,23.40
2018-07-20T07:41:19.985Z,23.40
2018-07-20T07:48:42.961Z,23.50
2018-07-20T07:49:46.347Z,23.50
2018-07-20T07:50:52.481Z,23.50
2018-07-20T07:51:55.916Z,23.50
2018-07-20T07:52:59.307Z,23.50
2018-07-20T07:54:02.712Z,23.50
2018-07-20T07:55:07.295Z,23.50
2018-07-20T07:56:11.680Z,23.50
2018-07-20T07:57:15.103Z,23.50
2018-07-20T07:58:18.491Z,23.50
2018-07-20T07:59:22.435Z,23.50
2018-07-20T08:00:26.745Z,23.50
2018-07-20T08:01:30.843Z,23.50
2018-07-20T08:02:34.239Z,23.60
2018-07-20T08:03:37.715Z,23.60
2018-07-20T08:04:41.063Z,23.60
2018-07-20T08:05:45.658Z,23.60
2018-07-20T08:06:49.082Z,23.60
2018-07-20T08:08:55.599Z,23.70
2018-07-20T08:09:59.191Z,23.70
2018-07-20T08:11:03.319Z,23.70
2018-07-20T08:12:06.760Z,23.70
2018-07-20T08:13:10.145Z,23.70
2018-07-20T08:14:13.864Z,23.70
2018-07-20T08:15:18.250Z,23.70
2018-07-20T08:16:22.611Z,23.70
2018-07-20T08:18:29.071Z,23.70
2018-07-20T08:19:32.471Z,23.70
2018-07-20T08:21:40.283Z,23.70
2018-07-20T08:22:43.663Z,23.70
2018-07-20T08:23:47.044Z,23.70
2018-07-20T08:25:53.575Z,23.80
2018-07-20T08:26:56.971Z,23.80
2018-07-20T08:28:00.359Z,23.80
2018-07-20T08:29:03.839Z,23.80
2018-07-20T08:30:07.785Z,23.80
2018-07-20T08:31:11.683Z,23.80
2018-07-20T08:32:15.073Z,23.80
2018-07-20T08:33:18.459Z,23.80
2018-07-20T08:34:21.883Z,23.80
2018-07-20T08:35:26.973Z,23.80
2018-07-20T08:36:31.195Z,23.80
2018-07-20T08:37:34.603Z,23.80
2018-07-20T08:38:37.987Z,23.80
2018-07-20T08:39:41.399Z,23.80
2018-07-20T08:40:45.803Z,23.80
2018-07-20T08:41:49.238Z,23.80
2018-07-20T08:42:52.746Z,23.80
2018-07-20T08:43:56.137Z,23.80
2018-07-20T08:44:59.556Z,23.80
2018-07-20T08:47:06.763Z,23.80
2018-07-20T08:48:10.147Z,23.80
2018-07-20T08:49:13.526Z,23.80
2018-07-20T08:50:17.817Z,23.80
2018-07-20T08:51:22.359Z,23.80
2018-07-20T08:52:25.763Z,23.80
2018-07-20T08:53:29.148Z,23.90
2018-07-20T08:54:32.537Z,23.90
2018-07-20T08:55:37.128Z,23.90
2018-07-20T08:56:40.529Z,23.90
2018-07-20T08:57:43.915Z,23.90
2018-07-20T08:58:47.990Z,23.90
2018-07-20T08:59:50.931Z,23.90
2018-07-20T09:00:55.654Z,24.00
2018-07-20T09:03:02.189Z,24.00
2018-07-20T09:04:05.583Z,24.00
2018-07-20T09:05:09.955Z,24.00
2018-07-20T09:06:14.411Z,24.00
2018-07-20T09:08:20.942Z,24.10
2018-07-20T09:09:24.331Z,24.10
2018-07-20T09:10:28.788Z,24.10
2018-07-20T09:11:32.264Z,24.10
2018-07-20T09:12:35.667Z,24.20
2018-07-20T09:13:39.080Z,24.20
2018-07-20T09:16:49.916Z,24.20
2018-07-20T09:17:53.323Z,24.20
2018-07-20T09:19:59.803Z,24.30
2018-07-20T09:21:04.387Z,24.30
2018-07-20T09:23:11.036Z,24.30
2018-07-20T09:24:14.433Z,24.30
2018-07-20T09:25:18.973Z,24.30
2018-07-20T09:26:23.220Z,24.30
2018-07-20T09:27:26.631Z,24.40
2018-07-20T09:28:30.020Z,24.40
2018-07-20T09:29:39.787Z,24.40
2018-07-20T09:31:47.379Z,24.50
2018-07-20T09:33:53.862Z,24.50
2018-07-20T09:34:57.259Z,24.50
2018-07-20T09:36:02.230Z,24.50
2018-07-20T09:37:05.831Z,24.50
2018-07-20T09:40:17.683Z,24.60
2018-07-20T09:41:22.291Z,24.60
2018-07-20T09:42:25.695Z,24.60
2018-07-20T09:43:29.096Z,24.60
2018-07-20T09:44:32.503Z,24.60
2018-07-20T09:46:39.635Z,24.70
2018-07-20T09:47:43.023Z,24.70
2018-07-20T09:48:46.420Z,24.70
2018-07-20T09:49:49.812Z,24.70
2018-07-20T09:50:54.357Z,24.80
2018-07-20T09:51:57.795Z,24.80
2018-07-20T09:53:01.187Z,24.80
2018-07-20T09:54:04.601Z,24.80
2018-07-20T09:55:08.953Z,24.80
2018-07-20T09:56:13.358Z,24.90
2018-07-20T09:57:16.766Z,24.90
2018-07-20T09:58:20.164Z,24.90
2018-07-20T09:59:23.656Z,24.90
2018-07-20T10:00:32.885Z,24.90
2018-07-20T10:02:39.399Z,25.00
2018-07-20T10:03:42.799Z,25.00
2018-07-20T10:04:46.235Z,25.00
2018-07-20T10:05:51.073Z,25.10
2018-07-20T10:06:54.483Z,25.10
2018-07-20T10:07:57.859Z,25.10
2018-07-20T10:09:01.252Z,25.10
2018-07-20T10:11:09.455Z,25.10
2018-07-20T10:12:12.879Z,25.20
2018-07-20T10:13:16.891Z,25.20
2018-07-20T10:14:20.691Z,25.20
2018-07-20T10:15:25.244Z,25.20
2018-07-20T10:16:29.267Z,25.20
2018-07-20T10:17:32.667Z,25.30
2018-07-20T10:18:36.060Z,25.30
2018-07-20T10:19:39.555Z,25.30
2018-07-20T10:20:44.647Z,25.30
2018-07-20T10:21:48.059Z,25.30
2018-07-20T10:22:51.447Z,25.30
2018-07-20T10:23:54.831Z,25.40
2018-07-20T10:24:58.219Z,25.40
2018-07-20T10:26:03.055Z,25.40
2018-07-20T10:27:06.460Z,25.40
2018-07-20T10:28:09.848Z,25.50
2018-07-20T10:29:13.233Z,25.50
2018-07-20T10:30:17.841Z,25.50
2018-07-20T10:32:25.252Z,25.50
2018-07-20T10:33:28.639Z,25.50
2018-07-20T10:34:32.030Z,25.60
2018-07-20T10:35:36.484Z,25.60
2018-07-20T10:36:39.946Z,25.60
2018-07-20T10:39:49.459Z,25.70
2018-07-20T10:40:54.053Z,25.70
2018-07-20T10:43:00.555Z,25.80
2018-07-20T10:44:03.961Z,25.80
2018-07-20T10:45:07.891Z,25.80
2018-07-20T10:46:13.206Z,25.80
2018-07-20T10:47:16.662Z,25.80
2018-07-20T10:48:20.068Z,25.90
2018-07-20T10:49:23.446Z,25.90
2018-07-20T10:50:27.839Z,25.90
2018-07-20T10:51:32.271Z,25.90
2018-07-20T10:52:35.711Z,25.90
2018-07-20T10:53:39.098Z,25.90
2018-07-20T10:54:42.489Z,25.90
2018-07-20T10:56:49.671Z,26.00
2018-07-20T10:57:53.073Z,26.00
2018-07-20T10:58:56.464Z,26.00
2018-07-20T10:59:59.839Z,26.00
2018-07-20T11:02:07.072Z,26.10
2018-07-20T11:03:10.467Z,26.10
2018-07-20T11:04:13.847Z,26.10
2018-07-20T11:05:19.392Z,26.10
2018-07-20T11:06:25.304Z,26.20
2018-07-20T11:07:28.719Z,26.20
2018-07-20T11:08:32.115Z,26.20
2018-07-20T11:09:35.495Z,26.30
2018-07-20T11:10:40.834Z,26.30
2018-07-20T11:12:47.383Z,26.30
2018-07-20T11:13:50.788Z,26.40
2018-07-20T11:14:54.180Z,26.40
2018-07-20T11:15:58.451Z,26.40
2018-07-20T11:17:01.876Z,26.40
2018-07-20T11:18:05.507Z,26.50
2018-07-20T11:19:08.935Z,26.50
2018-07-20T11:20:13.374Z,26.50
2018-07-20T11:21:17.960Z,26.60
2018-07-20T11:23:24.543Z,26.60
2018-07-20T11:24:27.938Z,26.60
2018-07-20T11:25:32.282Z,26.70
2018-07-20T11:26:35.695Z,26.70
2018-07-20T11:27:39.075Z,26.70
2018-07-20T11:28:42.455Z,26.80
2018-07-20T11:29:45.875Z,26.80
2018-07-20T11:30:50.449Z,26.80
2018-07-20T11:31:53.871Z,26.90
2018-07-20T11:32:57.455Z,27.00
2018-07-20T11:34:00.848Z,27.00
2018-07-20T11:35:05.097Z,27.00
2018-07-20T11:36:09.607Z,27.00
2018-07-20T11:37:13.059Z,27.00
2018-07-20T11:38:16.631Z,27.00
2018-07-20T11:39:20.008Z,27.00
2018-07-20T11:40:24.516Z,27.00
2018-07-20T11:41:29.383Z,27.00
2018-07-20T11:42:32.883Z,27.00
2018-07-20T11:43:36.270Z,27.00
2018-07-20T11:44:39.663Z,27.00
2018-07-20T11:46:46.935Z,27.10
2018-07-20T11:47:50.342Z,27.10
2018-07-20T11:48:53.727Z,27.10
2018-07-20T11:49:57.115Z,27.10
2018-07-20T11:51:01.530Z,27.10
2018-07-20T11:52:05.022Z,27.20
2018-07-20T11:53:08.443Z,27.20
2018-07-20T11:54:11.835Z,27.30
2018-07-20T11:55:16.141Z,27.30
2018-07-20T11:57:23.936Z,27.30
2018-07-20T11:58:27.315Z,27.40
2018-07-20T11:59:30.728Z,27.40
2018-07-20T12:00:35.223Z,27.40
2018-07-20T12:01:38.651Z,27.40
2018-07-20T12:02:42.027Z,27.40
2018-07-20T12:03:45.673Z,27.40
2018-07-20T12:04:49.056Z,27.40
2018-07-20T12:05:53.987Z,27.50
2018-07-20T12:06:57.446Z,27.50
2018-07-20T12:08:00.835Z,27.50
2018-07-20T12:09:06.455Z,27.50
2018-07-20T12:10:11.003Z,27.50
2018-07-20T12:11:15.367Z,27.50
2018-07-20T12:12:18.777Z,27.50
2018-07-20T12:13:22.163Z,27.50
2018-07-20T12:14:25.542Z,27.60
2018-07-20T12:15:30.504Z,27.60
2018-07-20T12:16:33.919Z,27.60
2018-07-20T12:17:37.303Z,27.60
2018-07-20T12:18:40.692Z,27.60
2018-07-20T12:19:44.069Z,27.60
2018-07-20T12:20:48.557Z,27.60
2018-07-20T12:21:51.935Z,27.60
2018-07-20T12:22:55.319Z,27.60
2018-07-20T12:23:58.691Z,27.60
2018-07-20T12:25:02.132Z,27.60
2018-07-20T12:26:06.689Z,27.60
2018-07-20T12:27:10.099Z,27.70
2018-07-20T12:28:13.541Z,27.70
2018-07-20T12:29:16.871Z,27.70
2018-07-20T12:30:21.101Z,27.70
2018-07-20T12:31:25.033Z,27.80
2018-07-20T12:32:28.417Z,27.80
2018-07-20T12:33:31.859Z,27.80
2018-07-20T12:34:35.347Z,27.80
2018-07-20T12:35:39.816Z,27.90
2018-07-20T12:36:43.227Z,27.90
2018-07-20T12:37:46.607Z,27.90
2018-07-20T12:38:50.001Z,27.90
2018-07-20T12:39:53.374Z,28.00
2018-07-20T12:40:57.805Z,28.10
2018-07-20T12:43:04.295Z,28.20
2018-07-20T12:44:07.763Z,28.20
2018-07-20T12:45:12.923Z,28.30
2018-07-20T12:46:17.391Z,28.30
2018-07-20T12:47:20.790Z,28.30
2018-07-20T12:48:24.211Z,28.30
2018-07-20T12:50:31.807Z,28.40
2018-07-20T12:52:38.311Z,28.40
2018-07-20T12:53:41.688Z,28.40
2018-07-20T12:54:45.092Z,28.50
2018-07-20T12:55:49.437Z,28.50
2018-07-20T12:56:52.835Z,28.50
2018-07-20T12:57:56.219Z,28.60
2018-07-20T12:58:59.636Z,28.60
2018-07-20T13:01:07.560Z,28.60
2018-07-20T13:02:10.955Z,28.70
2018-07-20T13:03:14.323Z,28.70
2018-07-20T13:04:17.706Z,28.80
2018-07-20T13:05:22.091Z,28.80
2018-07-20T13:06:26.196Z,28.80
2018-07-20T13:07:29.615Z,28.80
2018-07-20T13:08:32.999Z,28.80
2018-07-20T13:09:36.377Z,28.80
2018-07-20T13:10:40.885Z,28.80
2018-07-20T13:11:44.318Z,28.90
2018-07-20T13:12:47.679Z,28.90
2018-07-20T13:13:51.048Z,28.90
2018-07-20T13:14:54.419Z,28.90
2018-07-20T13:15:58.902Z,28.90
2018-07-20T13:17:02.311Z,28.90
2018-07-20T13:18:05.828Z,28.90
2018-07-20T13:19:09.139Z,29.00
2018-07-20T13:20:13.541Z,29.00
2018-07-20T13:21:18.019Z,29.00
2018-07-20T13:22:21.419Z,29.00
2018-07-20T13:23:24.787Z,29.00
2018-07-20T13:24:28.163Z,29.00
2018-07-20T13:25:32.541Z,29.10
2018-07-20T13:26:36.199Z,29.10
2018-07-20T13:27:39.579Z,29.10
2018-07-20T13:28:42.964Z,29.10
2018-07-20T13:29:46.334Z,29.20
2018-07-20T13:30:52.087Z,29.30
2018-07-20T13:34:01.737Z,29.40
2018-07-20T13:35:06.107Z,29.40
2018-07-20T13:36:10.548Z,29.40
2018-07-20T13:37:13.986Z,29.50
2018-07-20T13:38:17.359Z,29.50
2018-07-20T13:39:20.739Z,29.60
2018-07-20T13:40:25.328Z,29.60
2018-07-20T13:41:29.521Z,29.70
2018-07-20T13:42:32.980Z,29.70
2018-07-20T13:43:36.315Z,29.70
2018-07-20T13:44:40.678Z,29.70
2018-07-20T13:45:45.452Z,29.70
2018-07-20T13:46:48.863Z,29.70
2018-07-20T13:47:52.247Z,29.70
2018-07-20T13:51:02.943Z,29.70
2018-07-20T13:52:06.358Z,29.70
2018-07-20T13:53:09.837Z,29.70
2018-07-20T13:54:13.184Z,29.70
2018-07-20T13:55:18.303Z,29.70
2018-07-20T13:56:22.803Z,29.80
2018-07-20T13:57:26.228Z,29.70
2018-07-20T13:58:29.628Z,29.80
2018-07-20T13:59:32.987Z,29.80
2018-07-20T14:00:37.391Z,29.80
2018-07-20T14:01:40.785Z,29.90
2018-07-20T14:02:44.180Z,29.80
2018-07-20T14:03:47.543Z,29.80
2018-07-20T14:04:50.915Z,29.80
2018-07-20T14:05:55.429Z,29.90
2018-07-20T14:06:58.840Z,29.90
2018-07-20T14:08:02.265Z,30.00
2018-07-20T14:09:07.725Z,30.00
2018-07-20T14:10:12.992Z,30.00
2018-07-20T14:11:17.585Z,30.10
2018-07-20T14:12:21.008Z,30.10
2018-07-20T14:13:24.519Z,30.10
2018-07-20T14:14:27.891Z,30.10
2018-07-20T14:15:32.342Z,30.10
2018-07-20T14:16:35.763Z,30.10
2018-07-20T14:17:39.154Z,30.10
2018-07-20T14:18:42.547Z,30.10
2018-07-20T14:19:45.934Z,30.10
2018-07-20T14:20:50.299Z,30.10
2018-07-20T14:21:53.707Z,30.10
2018-07-20T14:22:57.085Z,30.10
2018-07-20T14:24:00.469Z,30.20
2018-07-20T14:25:04.231Z,30.20
2018-07-20T14:26:09.249Z,30.20
2018-07-20T14:27:12.675Z,30.30
2018-07-20T14:28:16.057Z,30.20
2018-07-20T14:29:19.459Z,30.30
2018-07-20T14:30:24.511Z,30.20
2018-07-20T14:31:29.549Z,30.30
2018-07-20T14:32:32.887Z,30.20
2018-07-20T14:33:36.264Z,30.30
2018-07-20T14:34:39.665Z,30.40
2018-07-20T14:35:44.122Z,30.40
2018-07-20T14:36:47.535Z,30.40
2018-07-20T14:37:50.903Z,30.50
2018-07-20T14:38:54.282Z,30.50
2018-07-20T14:39:57.764Z,30.50
2018-07-20T14:41:01.613Z,30.60
2018-07-20T14:42:05.003Z,30.60
2018-07-20T14:43:08.418Z,30.60
2018-07-20T14:44:11.767Z,30.60
2018-07-20T14:45:16.133Z,30.70
2018-07-20T14:46:21.259Z,30.70
2018-07-20T14:47:24.837Z,30.70
2018-07-20T14:48:28.231Z,30.70
2018-07-20T14:49:31.599Z,30.80
2018-07-20T14:50:35.569Z,30.80
2018-07-20T14:51:39.024Z,30.90
2018-07-20T14:52:42.399Z,30.90
2018-07-20T14:53:45.767Z,30.90
2018-07-20T14:54:49.172Z,30.90
2018-07-20T14:55:53.657Z,30.90
2018-07-20T14:56:57.231Z,31.00
2018-07-20T14:58:00.614Z,31.10
2018-07-20T14:59:03.995Z,31.10
2018-07-20T15:00:08.685Z,31.10
2018-07-20T15:01:13.897Z,31.10
2018-07-20T15:02:17.365Z,31.10
2018-07-20T15:03:20.709Z,31.10
2018-07-20T15:04:24.083Z,31.10
2018-07-20T15:06:31.343Z,31.00
2018-07-20T15:07:35.000Z,31.00
2018-07-20T15:08:38.390Z,31.00
2018-07-20T15:09:41.931Z,31.00
2018-07-20T15:10:46.368Z,30.90
2018-07-20T15:11:49.794Z,30.90
2018-07-20T15:12:53.272Z,30.80
2018-07-20T15:13:56.647Z,30.80
2018-07-20T15:15:00.045Z,30.70
2018-07-20T15:16:05.137Z,30.80
2018-07-20T15:17:08.567Z,30.80
2018-07-20T15:18:11.951Z,30.80
2018-07-20T15:19:15.327Z,30.80